الصفحة الرئيسية
METAR-TAF:

METAR-TAF

مطار :

مطار جناح الدولي

كراتشي, باكستان

دائرة عرض: 24-54N, خط طول: 067-08E, ارتفاع: 21 متر

مراقبة الطقس الحالي

تاريخ ووقت الإصدار 28 دقيقة قبل الساعة 20:30UTC
ريح 6 عقدة من الشرق/الشمال الشرقي
درجة الحرارة 16°درجة مئوية
الرطوبة 82%
ضغط 1016 hPa
الرؤية: 4000 متر
دخان

METAR: OPKC 132030Z 07006KT 4000 FU NSC 16/13 Q1016 NOSIG

زمن: 01:58 (20:58 UTC)

توقعات

تاريخ ووقت الإصدار 5ساعات و 28 دقيقة قبل الساعة 15:30UTC
التوقعات صالحة من13 الساعة 18 UTC إلى 14 الساعة 03 UTC
ريح 5 عقدة من الغرب/الشمال الغربي
الرؤية: 3000 متر
دخان
مؤقت
من 14 الساعة 00 UTC إلى 14 الساعة 03 UTC
ريح 5 عقدة من الشمال/الشمال الغربي
الرؤية: 2000 متر
غشاء

TAF: OPKC 131530Z 1318/1403 29005KT 3000 FU NSC TEMPO 1400/1403 33005KT 2000 BR NSC

أرصاد الطقس والتوقعات من أكثر من 4000 مطار (تقارير الطقس للمطار METAR والتنبؤ بالطقس بالمطارTAF).

المحطات المتاحة هي النقط الصفراء والحمراء على الخريطة.

حرك المؤشر فوق النقطة لمعرفة اسم المحطة.

ثم انقر لمعرفة أرصاد وتوقعات الطقس.

لتغيير الخارطة: اضغط على الأزرار الخضراء مع رمز الصليب الأسود للتكبير. على الزر الأخضر مع شرطة للتصغير، أو على الأسهم الخضراء للخرائط المجاورة.


METAR-TAF: